createdAt,value
2023-01-29T00:03:32.031Z,3.28
2023-01-29T00:08:52.924Z,2.30
2023-01-29T00:14:13.841Z,2.63
2023-01-29T00:19:34.715Z,3.00
2023-01-29T00:24:55.703Z,2.70
2023-01-29T00:30:19.702Z,2.58
2023-01-29T00:35:41.495Z,2.13
2023-01-29T00:41:31.379Z,2.03
2023-01-29T00:46:52.279Z,2.13
2023-01-29T00:52:25.510Z,2.40
2023-01-29T00:57:46.613Z,2.13
2023-01-29T01:03:07.755Z,2.60
2023-01-29T01:08:47.669Z,2.85
2023-01-29T01:14:08.490Z,2.40
2023-01-29T01:19:29.480Z,2.47
2023-01-29T01:24:50.434Z,3.20
2023-01-29T01:30:13.053Z,2.95
2023-01-29T01:35:34.204Z,3.13
2023-01-29T01:40:54.857Z,2.92
2023-01-29T01:46:15.731Z,3.13
2023-01-29T01:51:39.016Z,2.80
2023-01-29T01:57:09.406Z,3.15
2023-01-29T02:02:48.477Z,4.40
2023-01-29T02:08:28.689Z,4.50
2023-01-29T02:13:53.807Z,4.88
2023-01-29T02:19:34.188Z,3.45
2023-01-29T02:25:29.784Z,4.45
2023-01-29T02:31:03.161Z,4.97
2023-01-29T02:36:46.092Z,5.20
2023-01-29T02:42:21.849Z,4.57
2023-01-29T02:47:52.969Z,5.45
2023-01-29T02:53:32.465Z,4.68
2023-01-29T02:58:59.110Z,4.93
2023-01-29T03:04:24.552Z,5.10
2023-01-29T03:09:48.646Z,4.60
2023-01-29T03:15:11.646Z,5.40
2023-01-29T03:26:16.779Z,4.95
2023-01-29T03:31:56.950Z,4.32
2023-01-29T03:37:35.016Z,3.90
2023-01-29T03:43:11.071Z,5.00
2023-01-29T03:48:36.597Z,4.45
2023-01-29T03:54:18.961Z,4.70
2023-01-29T03:59:54.937Z,4.63
2023-01-29T04:05:45.551Z,5.00
2023-01-29T04:11:15.453Z,4.55
2023-01-29T04:16:42.060Z,4.38
2023-01-29T04:22:37.035Z,4.85
2023-01-29T04:28:10.651Z,4.40
2023-01-29T04:33:54.973Z,4.43
2023-01-29T04:39:30.375Z,3.70
2023-01-29T04:44:58.570Z,4.68
2023-01-29T04:50:39.521Z,4.50
2023-01-29T04:56:32.474Z,4.35
2023-01-29T05:02:06.890Z,4.45
2023-01-29T05:07:27.519Z,4.55
2023-01-29T05:12:55.082Z,4.43
2023-01-29T05:18:16.222Z,3.83
2023-01-29T05:23:36.804Z,4.35
2023-01-29T05:28:57.829Z,4.28
2023-01-29T05:34:18.526Z,3.80
2023-01-29T05:39:39.420Z,3.60
2023-01-29T05:45:00.401Z,4.13
2023-01-29T05:50:21.575Z,3.22
2023-01-29T05:55:48.482Z,3.05
2023-01-29T06:01:14.458Z,3.28
2023-01-29T06:06:36.218Z,3.60
2023-01-29T06:11:57.683Z,3.00
2023-01-29T06:17:18.268Z,3.42
2023-01-29T06:22:38.972Z,3.08
2023-01-29T06:27:59.976Z,2.83
2023-01-29T06:33:20.824Z,3.00
2023-01-29T06:38:41.988Z,3.30
2023-01-29T06:44:02.794Z,3.28
2023-01-29T06:49:23.820Z,3.30
2023-01-29T06:54:44.596Z,3.20
2023-01-29T07:00:06.630Z,3.30
2023-01-29T07:05:27.621Z,3.47
2023-01-29T07:10:49.278Z,3.42
2023-01-29T07:16:10.379Z,2.80
2023-01-29T07:21:31.107Z,2.90
2023-01-29T07:26:52.022Z,2.90
2023-01-29T07:32:13.019Z,2.72
2023-01-29T07:37:33.672Z,3.08
2023-01-29T07:42:59.406Z,2.83
2023-01-29T07:48:20.945Z,2.70
2023-01-29T07:53:42.150Z,2.72
2023-01-29T07:59:03.386Z,2.70
2023-01-29T08:04:24.651Z,2.47
2023-01-29T08:09:48.022Z,2.78
2023-01-29T08:15:09.472Z,2.60
2023-01-29T08:20:30.511Z,2.78
2023-01-29T08:25:51.243Z,2.78
2023-01-29T08:31:18.228Z,2.53
2023-01-29T08:36:39.355Z,2.85
2023-01-29T08:41:59.918Z,2.00
2023-01-29T08:47:20.470Z,3.00
2023-01-29T08:52:41.252Z,3.28
2023-01-29T08:58:04.145Z,2.60
2023-01-29T09:03:25.026Z,3.50
2023-01-29T09:08:45.758Z,3.22
2023-01-29T09:14:06.363Z,4.40
2023-01-29T09:19:27.089Z,4.50
2023-01-29T09:24:47.886Z,3.65
2023-01-29T09:30:09.232Z,2.90
2023-01-29T09:35:30.166Z,3.00
2023-01-29T09:40:54.889Z,2.50
2023-01-29T09:46:23.022Z,3.25
2023-01-29T09:51:46.803Z,3.28
2023-01-29T09:57:08.012Z,3.40
2023-01-29T10:02:53.607Z,3.40
2023-01-29T10:08:46.769Z,3.60
2023-01-29T10:14:31.188Z,4.20
2023-01-29T10:25:20.437Z,3.50
2023-01-29T10:30:41.704Z,3.63
2023-01-29T10:36:04.895Z,3.67
2023-01-29T10:41:42.494Z,3.55
2023-01-29T10:47:12.385Z,3.78
2023-01-29T10:52:55.930Z,4.35
2023-01-29T10:58:30.018Z,4.03
2023-01-29T11:04:01.939Z,4.20
2023-01-29T11:15:07.207Z,4.03
2023-01-29T11:20:28.356Z,4.72
2023-01-29T11:25:52.876Z,4.53
2023-01-29T11:36:39.769Z,4.60
2023-01-29T11:42:04.642Z,4.85
2023-01-29T11:47:29.386Z,4.68
2023-01-29T11:52:50.311Z,4.68
2023-01-29T11:58:17.975Z,5.25
2023-01-29T12:03:41.659Z,5.05
2023-01-29T12:09:03.174Z,5.45
2023-01-29T12:14:27.231Z,5.40
2023-01-29T12:19:56.551Z,5.57
2023-01-29T12:25:45.388Z,5.28
2023-01-29T12:31:25.013Z,5.40
2023-01-29T12:36:55.005Z,4.90
2023-01-29T12:42:19.275Z,4.55
2023-01-29T12:47:43.083Z,4.40
2023-01-29T12:53:10.000Z,5.13
2023-01-29T12:58:35.161Z,5.32
2023-01-29T13:04:26.457Z,5.30
2023-01-29T13:09:50.803Z,5.82
2023-01-29T13:15:25.386Z,5.53
2023-01-29T13:20:46.499Z,6.35
2023-01-29T13:26:07.691Z,6.03
2023-01-29T13:31:31.647Z,5.93
2023-01-29T13:36:54.582Z,6.60
2023-01-29T13:42:37.547Z,6.28
2023-01-29T13:48:22.347Z,5.72
2023-01-29T13:53:43.586Z,5.77
2023-01-29T13:59:05.532Z,6.60
2023-01-29T14:04:28.398Z,5.40
2023-01-29T14:09:49.307Z,6.38
2023-01-29T14:15:21.248Z,5.65
2023-01-29T14:20:48.650Z,5.78
2023-01-29T14:26:32.301Z,6.05
2023-01-29T14:32:14.735Z,6.60
2023-01-29T14:37:37.242Z,5.90
2023-01-29T14:43:01.955Z,6.05
2023-01-29T14:48:35.213Z,6.20
2023-01-29T14:54:01.772Z,6.50
2023-01-29T14:59:27.074Z,6.50
2023-01-29T15:04:52.441Z,6.05
2023-01-29T15:10:40.533Z,6.72
2023-01-29T15:16:09.310Z,6.07
2023-01-29T15:21:30.799Z,6.10
2023-01-29T15:26:51.924Z,6.53
2023-01-29T15:32:29.725Z,7.43
2023-01-29T15:38:01.587Z,6.82
2023-01-29T15:43:26.873Z,6.10
2023-01-29T15:48:49.079Z,6.55
2023-01-29T15:54:10.964Z,7.15
2023-01-29T15:59:34.742Z,6.13
2023-01-29T16:04:55.787Z,7.80
2023-01-29T16:10:18.958Z,8.10
2023-01-29T16:15:40.896Z,7.30
2023-01-29T16:21:05.436Z,7.72
2023-01-29T16:31:48.195Z,6.55
2023-01-29T16:37:30.336Z,6.72
2023-01-29T16:42:52.762Z,7.70
2023-01-29T16:48:26.526Z,7.95
2023-01-29T16:53:59.942Z,8.00
2023-01-29T16:59:26.860Z,6.95
2023-01-29T17:04:48.166Z,7.85
2023-01-29T17:10:16.895Z,9.05
2023-01-29T17:15:43.776Z,7.38
2023-01-29T17:21:05.052Z,8.63
2023-01-29T17:26:26.473Z,9.25
2023-01-29T17:31:47.538Z,8.93
2023-01-29T17:37:12.666Z,9.80
2023-01-29T17:42:33.797Z,9.20
2023-01-29T17:47:54.625Z,9.18
2023-01-29T17:53:15.964Z,9.55
2023-01-29T17:58:37.109Z,9.30
2023-01-29T18:03:57.906Z,8.77
2023-01-29T18:09:20.662Z,8.07
2023-01-29T18:14:41.746Z,8.48
2023-01-29T18:20:03.106Z,8.13
2023-01-29T18:25:25.722Z,7.55
2023-01-29T18:30:47.559Z,7.25
2023-01-29T18:36:08.893Z,7.75
2023-01-29T18:41:29.794Z,6.70
2023-01-29T18:46:50.633Z,7.00
2023-01-29T18:52:11.369Z,7.60
2023-01-29T18:58:25.089Z,6.90
2023-01-29T19:03:14.376Z,7.72
2023-01-29T19:08:35.144Z,9.18
2023-01-29T19:13:55.992Z,8.70
2023-01-29T19:19:16.862Z,8.40
2023-01-29T19:24:39.109Z,7.80
2023-01-29T19:30:00.516Z,6.65
2023-01-29T19:35:21.814Z,7.40
2023-01-29T19:40:42.905Z,6.47
2023-01-29T19:46:03.910Z,6.82
2023-01-29T19:51:24.703Z,7.18
2023-01-29T19:56:45.416Z,6.68
2023-01-29T20:02:06.550Z,7.72
2023-01-29T20:07:27.751Z,7.32
2023-01-29T20:12:48.936Z,8.00
2023-01-29T20:18:12.105Z,7.18
2023-01-29T20:23:38.171Z,7.80
2023-01-29T20:28:59.268Z,7.18
2023-01-29T20:34:20.071Z,8.23
2023-01-29T20:39:40.795Z,9.18
2023-01-29T20:45:01.644Z,7.68
2023-01-29T20:50:22.284Z,8.15
2023-01-29T20:55:43.429Z,7.30
2023-01-29T21:01:11.674Z,7.35
2023-01-29T21:06:32.447Z,8.32
2023-01-29T21:11:53.113Z,8.27
2023-01-29T21:17:13.632Z,8.43
2023-01-29T21:22:34.634Z,8.35
2023-01-29T21:27:55.266Z,8.05
2023-01-29T21:33:16.027Z,7.25
2023-01-29T21:38:37.059Z,8.93
2023-01-29T21:43:57.998Z,9.65
2023-01-29T21:49:19.005Z,9.90
2023-01-29T21:54:40.104Z,8.48
2023-01-29T22:00:02.257Z,8.73
2023-01-29T22:05:26.728Z,8.70
2023-01-29T22:10:47.934Z,10.40
2023-01-29T22:16:09.135Z,8.20
2023-01-29T22:21:30.169Z,8.73
2023-01-29T22:26:51.298Z,9.85
2023-01-29T22:32:13.310Z,9.43
2023-01-29T22:37:33.955Z,8.60
2023-01-29T22:42:54.684Z,9.00
2023-01-29T22:48:15.417Z,8.82
2023-01-29T22:53:44.247Z,8.50
2023-01-29T22:59:05.460Z,9.48
2023-01-29T23:04:26.400Z,8.68
2023-01-29T23:09:46.954Z,7.75
2023-01-29T23:15:07.982Z,8.30
2023-01-29T23:20:28.829Z,8.60
2023-01-29T23:26:08.552Z,8.13
2023-01-29T23:31:30.056Z,8.00
2023-01-29T23:36:50.896Z,8.02
2023-01-29T23:42:11.649Z,8.30
2023-01-29T23:47:32.513Z,7.82
2023-01-29T23:52:53.005Z,8.02
2023-01-29T23:58:13.690Z,7.18
